createdAt,value
2023-03-22T00:01:53.780Z,13.72
2023-03-22T00:04:24.981Z,13.72
2023-03-22T00:06:55.421Z,13.71
2023-03-22T00:09:26.031Z,13.70
2023-03-22T00:11:56.498Z,13.69
2023-03-22T00:14:27.064Z,13.68
2023-03-22T00:16:57.503Z,13.68
2023-03-22T00:19:29.223Z,13.71
2023-03-22T00:22:00.746Z,13.73
2023-03-22T00:24:31.211Z,13.76
2023-03-22T00:27:01.997Z,13.78
2023-03-22T00:29:32.484Z,13.79
2023-03-22T00:32:04.329Z,13.81
2023-03-22T00:34:35.681Z,13.83
2023-03-22T00:37:08.131Z,13.83
2023-03-22T00:39:38.705Z,13.84
2023-03-22T00:42:09.541Z,13.85
2023-03-22T00:44:40.025Z,13.84
2023-03-22T00:47:10.747Z,13.84
2023-03-22T00:49:41.254Z,13.83
2023-03-22T00:52:11.789Z,13.81
2023-03-22T00:54:42.435Z,13.80
2023-03-22T00:57:14.303Z,13.79
2023-03-22T00:59:44.773Z,13.78
2023-03-22T01:02:15.795Z,13.77
2023-03-22T01:04:48.039Z,13.76
2023-03-22T01:07:21.554Z,13.75
2023-03-22T01:09:53.220Z,13.75
2023-03-22T01:12:23.651Z,13.74
2023-03-22T01:14:54.239Z,13.73
2023-03-22T01:17:25.133Z,13.73
2023-03-22T01:19:55.859Z,13.72
2023-03-22T01:22:26.610Z,13.72
2023-03-22T01:24:57.805Z,13.71
2023-03-22T01:27:28.348Z,13.70
2023-03-22T01:29:58.777Z,13.69
2023-03-22T01:32:29.303Z,13.67
2023-03-22T01:34:59.874Z,13.69
2023-03-22T01:37:32.718Z,13.71
2023-03-22T01:40:03.877Z,13.73
2023-03-22T01:42:34.687Z,13.74
2023-03-22T01:45:35.771Z,13.75
2023-03-22T01:48:10.997Z,13.77
2023-03-22T01:50:46.941Z,13.77
2023-03-22T01:53:23.684Z,13.77
2023-03-22T01:55:56.458Z,13.77
2023-03-22T01:58:32.242Z,13.76
2023-03-22T02:01:06.023Z,13.76
2023-03-22T02:03:49.387Z,13.76
2023-03-22T02:06:21.454Z,13.75
2023-03-22T02:08:58.061Z,13.75
2023-03-22T02:11:33.422Z,13.75
2023-03-22T02:14:43.992Z,13.73
2023-03-22T02:17:43.882Z,13.71
2023-03-22T02:20:47.159Z,13.70
2023-03-22T02:23:40.753Z,13.68
2023-03-22T02:26:41.956Z,13.67
2023-03-22T02:29:19.390Z,13.64
2023-03-22T02:32:26.440Z,13.62
2023-03-22T02:35:24.449Z,13.61
2023-03-22T02:38:21.134Z,13.63
2023-03-22T02:40:53.901Z,13.65
2023-03-22T02:43:38.649Z,13.66
2023-03-22T02:46:15.420Z,13.67
2023-03-22T02:48:54.143Z,13.67
2023-03-22T02:51:30.707Z,13.67
2023-03-22T02:54:06.579Z,13.67
2023-03-22T02:56:41.643Z,13.67
2023-03-22T02:59:14.958Z,13.66
2023-03-22T03:01:50.492Z,13.66
2023-03-22T03:04:26.847Z,13.64
2023-03-22T03:07:01.851Z,13.63
2023-03-22T03:09:34.839Z,13.62
2023-03-22T03:12:10.411Z,13.60
2023-03-22T03:14:40.939Z,13.58
2023-03-22T03:17:23.787Z,13.56
2023-03-22T03:20:08.836Z,13.54
2023-03-22T03:22:53.745Z,13.53
2023-03-22T03:25:33.568Z,13.52
2023-03-22T03:28:11.488Z,13.50
2023-03-22T03:30:46.817Z,13.49
2023-03-22T03:33:20.859Z,13.48
2023-03-22T03:35:56.220Z,13.50
2023-03-22T03:38:30.363Z,13.52
2023-03-22T03:41:05.453Z,13.53
2023-03-22T03:43:38.015Z,13.54
2023-03-22T03:46:10.607Z,13.54
2023-03-22T03:48:43.882Z,13.55
2023-03-22T03:51:14.747Z,13.55
2023-03-22T03:53:45.597Z,13.56
2023-03-22T03:56:16.397Z,13.56
2023-03-22T03:58:48.620Z,13.56
2023-03-22T04:01:20.742Z,13.55
2023-03-22T04:04:15.257Z,13.53
2023-03-22T04:06:59.556Z,13.53
2023-03-22T04:09:33.793Z,13.52
2023-03-22T04:12:13.442Z,13.53
2023-03-22T04:14:44.940Z,13.53
2023-03-22T04:17:21.952Z,13.52
2023-03-22T04:19:53.597Z,13.55
2023-03-22T04:22:24.156Z,13.58
2023-03-22T04:24:54.637Z,13.58
2023-03-22T04:27:25.626Z,13.59
2023-03-22T04:30:01.608Z,13.59
2023-03-22T04:32:50.903Z,13.58
2023-03-22T04:35:23.608Z,13.59
2023-03-22T04:37:56.649Z,13.57
2023-03-22T04:40:28.906Z,13.56
2023-03-22T04:43:10.846Z,13.55
2023-03-22T04:46:01.734Z,13.53
2023-03-22T04:48:37.613Z,13.52
2023-03-22T04:51:09.759Z,13.51
2023-03-22T04:53:44.105Z,13.49
2023-03-22T04:56:15.923Z,13.48
2023-03-22T04:58:47.061Z,13.47
2023-03-22T05:01:19.205Z,13.47
2023-03-22T05:03:50.976Z,13.49
2023-03-22T05:06:24.633Z,13.51
2023-03-22T05:09:02.053Z,13.52
2023-03-22T05:11:32.841Z,13.52
2023-03-22T05:14:15.913Z,13.52
2023-03-22T05:16:46.455Z,13.52
2023-03-22T05:19:17.121Z,13.53
2023-03-22T05:21:57.958Z,13.52
2023-03-22T05:24:31.725Z,13.52
2023-03-22T05:27:03.756Z,13.51
2023-03-22T05:29:36.993Z,13.49
2023-03-22T05:32:18.483Z,13.48
2023-03-22T05:34:50.272Z,13.47
2023-03-22T05:37:27.094Z,13.46
2023-03-22T05:39:59.864Z,13.45
2023-03-22T05:42:37.873Z,13.45
2023-03-22T05:45:17.809Z,13.48
2023-03-22T05:47:51.829Z,13.51
2023-03-22T05:50:25.809Z,13.52
2023-03-22T05:52:57.453Z,13.54
2023-03-22T05:55:53.194Z,13.55
2023-03-22T05:58:24.455Z,13.57
2023-03-22T06:00:55.765Z,13.57
2023-03-22T06:03:29.452Z,13.58
2023-03-22T06:06:11.612Z,13.59
2023-03-22T06:08:50.907Z,13.59
2023-03-22T06:11:21.529Z,13.59
2023-03-22T06:13:52.601Z,13.59
2023-03-22T06:16:24.059Z,13.58
2023-03-22T06:18:54.621Z,13.58
2023-03-22T06:21:25.127Z,13.57
2023-03-22T06:23:55.649Z,13.57
2023-03-22T06:26:26.959Z,13.56
2023-03-22T06:28:57.419Z,13.56
2023-03-22T06:31:27.908Z,13.56
2023-03-22T06:34:07.191Z,13.61
2023-03-22T06:36:43.026Z,13.64
2023-03-22T06:39:20.908Z,13.67
2023-03-22T06:41:52.455Z,13.70
2023-03-22T06:44:23.602Z,13.72
2023-03-22T06:46:54.066Z,13.74
2023-03-22T06:49:35.077Z,13.75
2023-03-22T06:52:06.793Z,13.77
2023-03-22T06:54:37.529Z,13.78
2023-03-22T06:57:08.144Z,13.80
2023-03-22T06:59:40.483Z,13.81
2023-03-22T07:02:14.536Z,13.82
2023-03-22T07:04:48.077Z,13.83
2023-03-22T07:07:18.886Z,13.82
2023-03-22T07:09:50.628Z,13.83
2023-03-22T07:12:21.253Z,13.84
2023-03-22T07:14:52.602Z,13.84
2023-03-22T07:17:31.937Z,13.85
2023-03-22T07:20:04.103Z,13.90
2023-03-22T07:22:34.760Z,13.95
2023-03-22T07:25:05.961Z,13.97
2023-03-22T07:27:36.838Z,14.00
2023-03-22T07:30:09.942Z,14.03
2023-03-22T07:32:43.844Z,14.05
2023-03-22T07:35:18.992Z,14.08
2023-03-22T07:37:51.171Z,14.09
2023-03-22T07:40:27.147Z,14.12
2023-03-22T07:42:59.076Z,14.13
2023-03-22T07:45:49.380Z,14.14
2023-03-22T07:48:36.174Z,14.15
2023-03-22T07:51:26.619Z,14.15
2023-03-22T07:53:57.114Z,14.16
2023-03-22T07:56:27.936Z,14.17
2023-03-22T07:58:58.557Z,14.18
2023-03-22T08:01:29.882Z,14.19
2023-03-22T08:04:19.583Z,14.20
2023-03-22T08:07:02.088Z,14.21
2023-03-22T08:09:33.348Z,14.23
2023-03-22T08:12:03.995Z,14.24
2023-03-22T08:14:37.352Z,14.25
2023-03-22T08:17:10.871Z,14.27
2023-03-22T08:19:41.485Z,14.29
2023-03-22T08:22:13.616Z,14.31
2023-03-22T08:25:16.366Z,14.33
2023-03-22T08:27:47.402Z,14.38
2023-03-22T08:30:18.393Z,14.44
2023-03-22T08:32:48.965Z,14.47
2023-03-22T08:35:19.645Z,14.50
2023-03-22T08:37:54.035Z,14.54
2023-03-22T08:40:25.054Z,14.58
2023-03-22T08:43:00.721Z,14.62
2023-03-22T08:45:32.409Z,14.64
2023-03-22T08:48:09.619Z,14.67
2023-03-22T08:51:06.463Z,14.69
2023-03-22T08:53:49.711Z,14.70
2023-03-22T08:56:39.119Z,14.72
2023-03-22T08:59:19.265Z,14.73
2023-03-22T09:01:59.471Z,14.73
2023-03-22T09:04:31.005Z,14.74
2023-03-22T09:07:01.438Z,14.74
2023-03-22T09:09:31.958Z,14.75
2023-03-22T09:12:02.524Z,14.76
2023-03-22T09:14:33.274Z,14.77
2023-03-22T09:17:04.300Z,14.79
2023-03-22T09:19:35.927Z,14.81
2023-03-22T09:22:08.694Z,14.83
2023-03-22T09:24:46.808Z,14.84
2023-03-22T09:27:17.368Z,14.84
2023-03-22T09:29:49.480Z,14.86
2023-03-22T09:32:20.656Z,14.88
2023-03-22T09:34:57.437Z,14.93
2023-03-22T09:37:30.497Z,14.96
2023-03-22T09:40:01.626Z,14.96
2023-03-22T09:42:38.959Z,14.96
2023-03-22T09:45:17.748Z,14.99
2023-03-22T09:47:50.464Z,15.00
2023-03-22T09:50:23.525Z,15.01
2023-03-22T09:52:54.498Z,15.03
2023-03-22T09:55:31.636Z,15.04
2023-03-22T09:58:11.525Z,15.05
2023-03-22T10:00:46.954Z,15.07
2023-03-22T10:03:26.977Z,15.08
2023-03-22T10:06:03.574Z,15.10
2023-03-22T10:08:44.050Z,15.13
2023-03-22T10:11:22.142Z,15.14
2023-03-22T10:14:01.367Z,15.16
2023-03-22T10:16:35.818Z,15.17
2023-03-22T10:19:22.598Z,15.19
2023-03-22T10:21:55.887Z,15.22
2023-03-22T10:24:29.503Z,15.26
2023-03-22T10:27:00.028Z,15.30
2023-03-22T10:29:36.085Z,15.31
2023-03-22T10:32:19.115Z,15.33
2023-03-22T10:34:50.021Z,15.36
2023-03-22T10:37:24.992Z,15.41
2023-03-22T10:39:59.675Z,15.45
2023-03-22T10:42:32.737Z,15.48
2023-03-22T10:45:05.267Z,15.51
2023-03-22T10:47:41.456Z,15.53
2023-03-22T10:50:19.462Z,15.56
2023-03-22T10:52:56.735Z,15.57
2023-03-22T10:55:27.537Z,15.60
2023-03-22T10:58:11.752Z,15.63
2023-03-22T11:00:47.278Z,15.68
2023-03-22T11:03:29.906Z,15.72
2023-03-22T11:06:07.431Z,15.74
2023-03-22T11:08:49.581Z,15.78
2023-03-22T11:11:23.534Z,15.80
2023-03-22T11:14:00.198Z,15.83
2023-03-22T11:16:32.156Z,15.87
2023-03-22T11:19:02.677Z,15.89
2023-03-22T11:21:34.576Z,15.91
2023-03-22T11:24:05.505Z,15.94
2023-03-22T11:26:40.771Z,15.97
2023-03-22T11:29:18.404Z,16.01
2023-03-22T11:31:56.316Z,16.05
2023-03-22T11:34:29.898Z,16.09
2023-03-22T11:37:02.415Z,16.13
2023-03-22T11:39:32.874Z,16.17
2023-03-22T11:42:06.705Z,16.21
2023-03-22T11:44:38.608Z,16.25
2023-03-22T11:47:09.574Z,16.29
2023-03-22T11:49:44.986Z,16.31
2023-03-22T11:52:20.264Z,16.34
2023-03-22T11:54:51.954Z,16.37
2023-03-22T11:57:27.330Z,16.39
2023-03-22T12:00:07.035Z,16.42
2023-03-22T12:02:44.738Z,16.43
2023-03-22T12:05:22.539Z,16.44
2023-03-22T12:07:57.240Z,16.46
2023-03-22T12:10:32.343Z,16.49
2023-03-22T12:13:06.126Z,16.52
2023-03-22T12:15:39.794Z,16.55
2023-03-22T12:18:16.506Z,16.58
2023-03-22T12:20:54.593Z,16.59
2023-03-22T12:23:26.885Z,16.60
2023-03-22T12:26:02.411Z,16.61
2023-03-22T12:28:40.626Z,16.63
2023-03-22T12:31:16.687Z,16.65
2023-03-22T12:33:49.219Z,16.67
2023-03-22T12:36:24.934Z,16.70
2023-03-22T12:38:58.622Z,16.71
2023-03-22T12:41:33.349Z,16.74
2023-03-22T12:44:10.642Z,16.77
2023-03-22T12:46:50.345Z,16.80
2023-03-22T12:49:28.844Z,16.84
2023-03-22T12:52:11.818Z,16.88
2023-03-22T12:54:43.333Z,16.92
2023-03-22T12:57:15.782Z,16.96
2023-03-22T12:59:49.758Z,17.01
2023-03-22T13:02:27.515Z,17.06
2023-03-22T13:05:00.957Z,17.11
2023-03-22T13:07:39.048Z,17.13
2023-03-22T13:10:48.833Z,17.16
2023-03-22T13:13:41.442Z,17.20
2023-03-22T13:16:34.823Z,17.24
2023-03-22T13:19:26.952Z,17.29
2023-03-22T13:22:17.552Z,17.33
2023-03-22T13:25:13.778Z,17.38
2023-03-22T13:27:53.944Z,17.43
2023-03-22T13:30:31.079Z,17.47
2023-03-22T13:33:14.050Z,17.51
2023-03-22T13:35:48.870Z,17.54
2023-03-22T13:38:24.128Z,17.56
2023-03-22T13:41:01.002Z,17.59
2023-03-22T13:43:35.268Z,17.60
2023-03-22T13:46:28.416Z,17.62
2023-03-22T13:49:33.621Z,17.64
2023-03-22T13:52:08.867Z,17.66
2023-03-22T13:54:48.930Z,17.68
2023-03-22T13:57:56.953Z,17.72
2023-03-22T14:00:41.528Z,17.74
2023-03-22T14:03:23.634Z,17.76
2023-03-22T14:06:04.292Z,17.77
2023-03-22T14:08:37.432Z,17.78
2023-03-22T14:11:20.764Z,17.79
2023-03-22T14:13:57.205Z,17.80
2023-03-22T14:16:39.188Z,17.81
2023-03-22T14:19:17.653Z,17.80
